AirNav   Everest Fuels
 
 394 users online  

0S5 Nezperce Municipal Airport
Nezperce, Idaho, USA

GOING TO NEZPERCE?


FAA INFORMATION EFFECTIVE 20 MAY 2021

Location

FAA Identifier: 0S5
Lat/Long: 46-14-18.7000N 116-14-18.8000W
46-14.311667N 116-14.313333W
46.2385278,-116.2385556
(estimated)
Elevation: 3201 ft. / 976 m (estimated)
Variation: 18E (1985)
Time zone: UTC -7 (UTC -8 during Standard Time)
Zip code: 83543

Airport Operations

Airport use: Open to the public
Activation date: 11/1949
Control tower: no
ARTCC: SEATTLE CENTER
FSS: BOISE FLIGHT SERVICE STATION
NOTAMs facility: BOI (NOTAM-D service available)
Attendance: APR-OCT MON-FRI 0800-1700, NOV-MAR IREG IREG
Wind indicator: yes
Segmented circle: no

Airport Communications

CTAF: 122.9
WX AWOS-3 at GIC (18 nm S): 118.175 (208-983-0306)

Nearby radio navigation aids

VOR radial/distance  VOR name  Freq  Var
MQGr088/27.5NEZ PERCE VOR/DME108.2020E

Airport Services

Parking: tiedowns
Airframe service: NONE
Powerplant service: NONE
Bottled oxygen: NONE
Bulk oxygen: NONE

Runway Information

Runway 15/33

Dimensions: 2400 x 30 ft. / 732 x 9 m
Surface: asphalt, in excellent condition
Runway edge markings: SOLID 6 IN CENTERLINE
RUNWAY 15  RUNWAY 33
Latitude: 46-14.506000N46-14.118000N
Longitude: 116-14.366167W116-14.260167W
Traffic pattern: rightleft
Markings: NSTD, in fair conditionNSTD, in fair condition
Obstructions: 80 ft. hill, 1000 ft. from runway, 10:1 slope to clear
RY 15 +3 FT SIGN AT 20 FT, 20 FT L&R; +2 FT BRIDGE ABUTMENTS AT 30 FT L& R.
19 ft. bldg, 225 ft. from runway, 75 ft. both sides of centerline, 1:1 slope to clear
RWY 33 RY 33 +18 FT ROAD AT 35 FT ON CNTRLN; +10 FT SIGN AT 55',63L; +6'FENCE AT 15'ON CNTRLN. +15FT SIGN AT 35',ON CENTERLINE:+45' TREES AT 0', 70' R

Airport Ownership and Management from official FAA records

Ownership: Publicly-owned
Owner: CITY OF NEZ PERCE
PO BOX 36
NEZPERCE, ID 83543
Phone 208-937-2454
OR 208-937-2652.
Manager: STEVE BATEMAN
411 4TH AVE
NEZPERCE, ID 83543
Phone 208-937-1021

Airport Operational Statistics

Aircraft based on the field: 3
Single engine airplanes: 3
    
Aircraft operations: avg 48/week *
80% local general aviation
20% transient general aviation
* for 12-month period ending 30 September 2018

Additional Remarks

CONSIDERABLE AGRICULTURAL OPNS DURING GROWING SEASON.
FOR CD CTC SEATTLE ARTCC AT 253-351-3694.

Instrument Procedures

There are no published instrument procedures at 0S5.

Some nearby airports with instrument procedures:

KGIC - Idaho County Airport (18 nm S)
KLWS - Lewiston-Nez Perce County Airport (33 nm W)
KPUW - Pullman/Moscow Regional Airport (47 nm NW)
KMYL - Mc Call Municipal Airport (81 nm S)
KALW - Walla Walla Regional Airport (85 nm W)
 
Loc | Ops | Rwys | IFR | FBO | Links
Com | Nav | Svcs | Stats | Notes
Area around 0S5 (Nezperce Municipal Airport)
 
Road maps at: MapQuest Bing Google
 
Aerial photo
WARNING: Photo may not be current or correct
Aerial photo of 0S5 (Nezperce Municipal Airport)
Photo courtesy of Berny and Mary Ann Oakland of Kamiah ID

Do you have a better or more recent aerial photo of Nezperce Municipal Airport that you would like to share? If so, please send us your photo.

 
Sectional chart

 
Airport distance calculator
Flying to Nezperce Municipal Airport? Find the distance to fly.

From to 0S5

Sunrise and sunset
Times for 13-Jun-2021
 Local
(UTC-7)
 Zulu
(UTC)
Morning civil twilight04:1511:15
Sunrise04:5411:54
Sunset20:3603:36
Evening civil twilight21:1504:15

Current date and time
Zulu (UTC)  13-Jun-2021 09:28:41
Local (UTC-7)  13-Jun-2021 02:28:41
 
METAR
KGIC 
18nm S 
130915Z AUTO 00000KT 10SM CLR 11/08 A2996 RMK AO1
KP69 
27nm E 
130852Z AUTO 00000KT 12/11 A2998 RMK AO1 SLP138 T01220111 58002 $
KLWS 
33nm W 
130856Z AUTO 12008KT 10SM CLR 19/08 A2985 RMK AO2 SLP098 T01890083 56012
TAF
KLWS 
33nm W 
130520Z 1306/1406 07005KT P6SM BKN250
NOTAMs
Click for the latest NOTAMs
NOTAMs are issued by the DoD/FAA and will open in a separate window not controlled by AirNav.

 

 
 

Would you like to see your business listed on this page?

 If your business provides an interesting product or service to pilots, flight crews, aircraft, or users of the Nezperce Municipal Airport, you should consider listing it here.  To start the listing process, click on the button below
 
Add a business
 

Other Pages about Nezperce Municipal Airport

Update a link
 
Copyright © AirNav, LLC. All rights reserved. Privacy Policy  Contact